createdAt,value
2022-09-06T00:01:38.980Z,14.35
2022-09-06T00:04:06.131Z,14.32
2022-09-06T00:06:36.291Z,14.28
2022-09-06T00:09:03.781Z,14.22
2022-09-06T00:11:31.114Z,14.17
2022-09-06T00:13:58.138Z,14.12
2022-09-06T00:16:30.421Z,14.07
2022-09-06T00:18:57.992Z,14.04
2022-09-06T00:21:28.230Z,14.03
2022-09-06T00:23:57.482Z,13.99
2022-09-06T00:26:24.991Z,13.95
2022-09-06T00:28:52.694Z,13.90
2022-09-06T00:31:23.054Z,13.90
2022-09-06T00:33:51.366Z,13.91
2022-09-06T00:36:20.260Z,13.92
2022-09-06T00:38:48.878Z,13.89
2022-09-06T00:41:21.833Z,13.86
2022-09-06T00:43:56.201Z,13.86
2022-09-06T00:46:31.540Z,13.85
2022-09-06T00:49:07.139Z,13.84
2022-09-06T00:51:37.891Z,13.81
2022-09-06T00:54:07.411Z,13.81
2022-09-06T00:56:40.449Z,13.80
2022-09-06T00:59:08.254Z,13.79
2022-09-06T01:01:39.268Z,13.76
2022-09-06T01:04:11.760Z,13.69
2022-09-06T01:06:59.409Z,13.63
2022-09-06T01:09:57.720Z,13.56
2022-09-06T01:12:33.868Z,13.49
2022-09-06T01:15:51.124Z,13.44
2022-09-06T01:18:27.734Z,13.40
2022-09-06T01:21:29.905Z,13.39
2022-09-06T01:24:28.633Z,13.37
2022-09-06T01:27:18.208Z,13.37
2022-09-06T01:30:00.462Z,13.33
2022-09-06T01:32:56.617Z,13.30
2022-09-06T01:35:36.032Z,13.30
2022-09-06T01:38:04.597Z,13.25
2022-09-06T01:40:38.255Z,13.24
2022-09-06T01:43:11.206Z,13.19
2022-09-06T01:46:03.089Z,13.14
2022-09-06T01:48:47.930Z,13.14
2022-09-06T01:51:30.491Z,13.10
2022-09-06T01:54:08.970Z,13.10
2022-09-06T01:57:12.556Z,13.11
2022-09-06T01:59:43.686Z,13.05
2022-09-06T02:02:16.474Z,12.99
2022-09-06T02:05:01.784Z,12.92
2022-09-06T02:07:50.402Z,12.85
2022-09-06T02:10:33.017Z,12.84
2022-09-06T02:13:06.496Z,12.81
2022-09-06T02:15:38.931Z,12.80
2022-09-06T02:18:11.272Z,12.74
2022-09-06T02:20:45.304Z,12.68
2022-09-06T02:23:16.286Z,12.62
2022-09-06T02:25:51.004Z,12.57
2022-09-06T02:28:19.044Z,12.52
2022-09-06T02:30:53.084Z,12.52
2022-09-06T02:33:24.669Z,12.50
2022-09-06T02:35:54.716Z,12.48
2022-09-06T02:38:28.908Z,12.45
2022-09-06T02:40:58.069Z,12.47
2022-09-06T02:43:42.162Z,12.50
2022-09-06T02:46:11.810Z,12.51
2022-09-06T02:48:38.894Z,12.50
2022-09-06T02:51:08.461Z,12.48
2022-09-06T02:53:36.032Z,12.49
2022-09-06T02:56:05.913Z,12.55
2022-09-06T02:58:39.618Z,12.62
2022-09-06T03:01:16.809Z,12.64
2022-09-06T03:03:46.174Z,12.66
2022-09-06T03:06:17.042Z,12.69
2022-09-06T03:08:47.180Z,12.69
2022-09-06T03:14:00.298Z,12.68
2022-09-06T03:16:34.652Z,12.65
2022-09-06T03:19:02.109Z,12.64
2022-09-06T03:21:31.883Z,12.65
2022-09-06T03:23:58.926Z,12.66
2022-09-06T03:26:29.548Z,12.66
2022-09-06T03:28:57.082Z,12.64
2022-09-06T03:31:26.843Z,12.64
2022-09-06T03:33:56.935Z,12.62
2022-09-06T03:36:26.253Z,12.59
2022-09-06T03:38:53.693Z,12.55
2022-09-06T03:41:20.802Z,12.52
2022-09-06T03:43:47.841Z,12.49
2022-09-06T03:46:14.821Z,12.47
2022-09-06T03:48:41.972Z,12.45
2022-09-06T03:51:08.958Z,12.39
2022-09-06T03:53:36.009Z,12.33
2022-09-06T03:56:03.153Z,12.27
2022-09-06T03:58:31.647Z,12.21
2022-09-06T04:01:04.807Z,12.14
2022-09-06T04:03:32.806Z,12.09
2022-09-06T04:06:01.870Z,12.07
2022-09-06T04:08:29.462Z,12.05
2022-09-06T04:10:58.353Z,12.04
2022-09-06T04:13:27.010Z,12.02
2022-09-06T04:15:56.010Z,11.91
2022-09-06T04:18:24.411Z,11.86
2022-09-06T04:20:54.130Z,11.90
2022-09-06T04:23:22.146Z,11.93
2022-09-06T04:25:51.336Z,11.95
2022-09-06T04:28:18.705Z,12.02
2022-09-06T04:30:51.855Z,12.01
2022-09-06T04:33:18.903Z,11.99
2022-09-06T04:35:49.957Z,12.07
2022-09-06T04:38:16.898Z,12.15
2022-09-06T04:40:43.738Z,12.20
2022-09-06T04:43:10.872Z,12.24
2022-09-06T04:45:39.302Z,12.26
2022-09-06T04:48:06.383Z,12.31
2022-09-06T04:50:33.881Z,12.35
2022-09-06T04:53:07.447Z,12.41
2022-09-06T04:55:40.639Z,12.46
2022-09-06T04:58:07.601Z,12.51
2022-09-06T05:00:38.451Z,12.56
2022-09-06T05:03:05.906Z,12.62
2022-09-06T05:05:32.810Z,12.64
2022-09-06T05:07:59.793Z,12.66
2022-09-06T05:10:26.952Z,12.70
2022-09-06T05:12:54.383Z,12.74
2022-09-06T05:15:22.574Z,12.77
2022-09-06T05:17:50.203Z,12.83
2022-09-06T05:20:17.934Z,12.88
2022-09-06T05:22:53.716Z,12.98
2022-09-06T05:25:21.018Z,13.10
2022-09-06T05:27:48.370Z,13.18
2022-09-06T05:30:17.544Z,13.30
2022-09-06T05:32:44.766Z,13.49
2022-09-06T05:35:13.049Z,13.69
2022-09-06T05:37:39.951Z,13.90
2022-09-06T05:40:12.061Z,14.06
2022-09-06T05:42:40.478Z,14.19
2022-09-06T05:45:08.119Z,14.33
2022-09-06T05:47:35.127Z,14.52
2022-09-06T05:50:02.802Z,14.66
2022-09-06T05:52:30.019Z,14.86
2022-09-06T05:54:56.976Z,15.09
2022-09-06T05:57:24.474Z,15.31
2022-09-06T05:59:53.051Z,15.56
2022-09-06T06:02:21.127Z,15.74
2022-09-06T06:04:48.334Z,15.89
2022-09-06T06:07:15.477Z,16.00
2022-09-06T06:09:44.641Z,16.13
2022-09-06T06:12:14.436Z,16.23
2022-09-06T06:14:41.651Z,16.35
2022-09-06T06:17:12.077Z,16.46
2022-09-06T06:19:39.734Z,16.59
2022-09-06T06:22:06.572Z,16.73
2022-09-06T06:24:34.101Z,16.92
2022-09-06T06:27:03.581Z,17.07
2022-09-06T06:29:30.581Z,17.13
2022-09-06T06:31:57.565Z,17.21
2022-09-06T06:34:24.765Z,17.26
2022-09-06T06:36:51.885Z,17.27
2022-09-06T06:39:18.875Z,17.27
2022-09-06T06:41:47.445Z,17.28
2022-09-06T06:44:32.549Z,17.44
2022-09-06T06:47:01.485Z,17.59
2022-09-06T06:49:29.136Z,17.72
2022-09-06T06:51:58.198Z,17.89
2022-09-06T06:54:25.135Z,18.03
2022-09-06T06:56:52.065Z,18.12
2022-09-06T06:59:19.664Z,18.22
2022-09-06T07:01:46.876Z,18.31
2022-09-06T07:04:14.863Z,18.42
2022-09-06T07:12:27.483Z,18.53
2022-09-06T07:14:55.073Z,18.45
2022-09-06T07:17:22.011Z,18.50
2022-09-06T07:22:41.068Z,18.80
2022-09-06T07:25:08.918Z,18.93
2022-09-06T07:27:47.640Z,19.08
2022-09-06T07:30:15.510Z,19.28
2022-09-06T07:32:42.309Z,19.40
2022-09-06T07:35:09.120Z,19.51
2022-09-06T07:37:36.536Z,19.42
2022-09-06T07:40:03.960Z,19.36
2022-09-06T07:42:36.063Z,19.30
2022-09-06T07:45:04.246Z,19.28
2022-09-06T07:53:10.908Z,19.25
2022-09-06T07:55:46.090Z,19.18
2022-09-06T07:58:13.772Z,19.11
2022-09-06T08:00:40.690Z,19.04
2022-09-06T08:03:09.491Z,19.07
2022-09-06T08:11:12.588Z,19.16
2022-09-06T08:13:39.361Z,19.20
2022-09-06T08:16:07.943Z,19.22
2022-09-06T08:18:35.498Z,19.18
2022-09-06T08:21:13.154Z,19.23
2022-09-06T08:23:47.653Z,19.37
2022-09-06T08:26:15.540Z,19.52
2022-09-06T08:28:42.343Z,19.69
2022-09-06T08:31:13.340Z,19.95
2022-09-06T08:33:40.870Z,20.15
2022-09-06T08:36:08.027Z,20.47
2022-09-06T08:38:35.026Z,20.80
2022-09-06T08:41:07.614Z,21.20
2022-09-06T08:43:34.894Z,21.55
2022-09-06T08:46:02.846Z,21.78
2022-09-06T08:48:32.054Z,22.01
2022-09-06T08:51:13.428Z,22.21
2022-09-06T08:53:43.945Z,22.35
2022-09-06T08:56:17.056Z,22.49
2022-09-06T08:58:52.980Z,22.54
2022-09-06T09:01:24.791Z,22.66
2022-09-06T09:03:54.022Z,22.84
2022-09-06T09:06:22.647Z,22.97
2022-09-06T09:08:49.893Z,22.99
2022-09-06T09:11:18.135Z,23.17
2022-09-06T09:14:00.232Z,23.39
2022-09-06T09:16:27.324Z,23.55
2022-09-06T09:18:59.324Z,23.59
2022-09-06T09:21:30.467Z,23.61
2022-09-06T09:23:59.721Z,23.79
2022-09-06T09:26:32.035Z,23.92
2022-09-06T09:29:07.584Z,24.09
2022-09-06T09:31:38.849Z,24.18
2022-09-06T09:34:09.725Z,24.35
2022-09-06T09:36:38.268Z,24.54
2022-09-06T09:39:11.663Z,24.62
2022-09-06T09:41:40.612Z,24.56
2022-09-06T09:44:09.898Z,24.37
2022-09-06T09:46:39.111Z,24.10
2022-09-06T09:49:10.855Z,23.94
2022-09-06T09:51:39.093Z,23.83
2022-09-06T09:54:07.651Z,23.89
2022-09-06T09:56:40.260Z,23.98
2022-09-06T09:59:19.227Z,24.03
2022-09-06T10:01:46.356Z,24.08
2022-09-06T10:07:13.766Z,24.12
2022-09-06T10:09:42.771Z,24.18
2022-09-06T10:12:15.351Z,24.28
2022-09-06T10:14:43.960Z,24.34
2022-09-06T10:17:21.417Z,24.45
2022-09-06T10:19:49.345Z,24.50
2022-09-06T10:22:26.892Z,24.51
2022-09-06T10:25:04.512Z,24.60
2022-09-06T10:27:32.836Z,24.78
2022-09-06T10:30:04.890Z,24.98
2022-09-06T10:32:50.924Z,24.89
2022-09-06T10:35:20.883Z,24.74
2022-09-06T10:37:53.813Z,24.67
2022-09-06T10:40:34.202Z,24.67
2022-09-06T10:43:03.043Z,24.59
2022-09-06T10:45:48.558Z,24.53
2022-09-06T10:48:29.266Z,24.47
2022-09-06T10:50:56.093Z,24.48
2022-09-06T10:53:36.993Z,24.41
2022-09-06T10:56:37.482Z,24.40
2022-09-06T11:02:22.106Z,24.36
2022-09-06T11:07:37.927Z,24.70
2022-09-06T11:10:10.459Z,24.67
2022-09-06T11:12:50.288Z,24.70
2022-09-06T11:15:21.438Z,24.68
2022-09-06T11:17:56.638Z,24.60
2022-09-06T11:20:36.187Z,24.58
2022-09-06T11:23:23.946Z,24.60
2022-09-06T11:26:07.933Z,24.60
2022-09-06T11:28:39.831Z,24.55
2022-09-06T11:34:26.533Z,24.84
2022-09-06T11:37:03.985Z,24.77
2022-09-06T11:42:39.638Z,24.55
2022-09-06T11:45:21.584Z,24.48
2022-09-06T11:47:51.736Z,24.54
2022-09-06T11:50:23.586Z,24.62
2022-09-06T11:53:06.252Z,24.60
2022-09-06T11:55:40.746Z,24.56
2022-09-06T11:58:17.283Z,24.55
2022-09-06T12:00:46.340Z,24.46
2022-09-06T12:06:21.171Z,24.50
2022-09-06T12:08:49.576Z,24.53
2022-09-06T12:11:35.247Z,24.81
2022-09-06T12:14:06.819Z,24.98
2022-09-06T12:16:59.907Z,25.21
2022-09-06T12:19:45.684Z,25.72
2022-09-06T12:22:41.655Z,25.91
2022-09-06T12:25:17.784Z,26.15
2022-09-06T12:27:58.307Z,26.53
2022-09-06T12:30:47.440Z,27.16
2022-09-06T12:33:24.312Z,27.69
2022-09-06T12:35:58.891Z,28.11
2022-09-06T12:38:26.654Z,28.77
2022-09-06T12:40:58.622Z,29.29
2022-09-06T12:43:26.596Z,29.51
2022-09-06T12:45:53.621Z,29.52
2022-09-06T12:48:28.338Z,29.92
2022-09-06T12:51:09.003Z,30.52
2022-09-06T12:53:38.200Z,31.18
2022-09-06T12:56:11.623Z,31.90
2022-09-06T12:58:41.129Z,32.63
2022-09-06T13:01:15.711Z,33.11
2022-09-06T13:04:02.491Z,32.86
2022-09-06T13:06:32.835Z,32.77
2022-09-06T13:09:00.829Z,32.76
2022-09-06T13:11:34.069Z,32.60
2022-09-06T13:14:02.253Z,32.19
2022-09-06T13:16:39.000Z,32.11
2022-09-06T13:19:14.970Z,32.41
2022-09-06T13:21:45.813Z,32.69
2022-09-06T13:24:20.290Z,32.84
2022-09-06T13:26:47.171Z,33.27
2022-09-06T13:29:18.300Z,33.51
2022-09-06T13:31:46.437Z,33.68
2022-09-06T13:34:27.959Z,32.62
2022-09-06T13:37:02.670Z,33.14
2022-09-06T13:39:33.281Z,33.94
2022-09-06T13:42:22.894Z,34.39
2022-09-06T13:44:52.997Z,34.90
2022-09-06T13:47:19.726Z,35.05
2022-09-06T13:49:46.754Z,34.45
2022-09-06T13:52:14.067Z,32.96
2022-09-06T13:54:45.094Z,31.46
2022-09-06T13:57:11.804Z,31.15
2022-09-06T13:59:38.798Z,31.77
2022-09-06T14:02:07.236Z,31.92
2022-09-06T14:04:35.237Z,32.24
2022-09-06T14:07:03.221Z,32.34
2022-09-06T14:09:30.024Z,32.85
2022-09-06T14:11:56.869Z,33.22
2022-09-06T14:14:24.330Z,33.59
2022-09-06T14:16:51.088Z,34.16
2022-09-06T14:19:17.828Z,34.87
2022-09-06T14:21:46.969Z,34.70
2022-09-06T14:24:13.952Z,34.79
2022-09-06T14:26:42.317Z,34.71
2022-09-06T14:29:09.181Z,35.01
2022-09-06T14:31:36.090Z,35.55
2022-09-06T14:34:05.252Z,36.03
2022-09-06T14:36:32.567Z,36.22
2022-09-06T14:39:00.120Z,36.39
2022-09-06T14:41:26.923Z,35.66
2022-09-06T14:43:55.086Z,33.63
2022-09-06T14:46:22.486Z,32.15
2022-09-06T14:48:56.337Z,30.99
2022-09-06T14:51:24.146Z,30.45
2022-09-06T14:53:52.458Z,30.20
2022-09-06T14:56:19.940Z,29.48
2022-09-06T14:58:46.777Z,28.74
2022-09-06T15:01:21.078Z,28.36
2022-09-06T15:03:51.223Z,28.31
2022-09-06T15:06:21.269Z,28.39
2022-09-06T15:08:48.363Z,28.50
2022-09-06T15:11:26.735Z,28.96
2022-09-06T15:13:53.503Z,29.73
2022-09-06T15:16:21.796Z,30.42
2022-09-06T15:18:48.627Z,31.00
2022-09-06T15:21:16.301Z,31.63
2022-09-06T15:23:44.288Z,31.58
2022-09-06T15:26:15.036Z,31.09
2022-09-06T15:28:45.682Z,30.29
2022-09-06T15:31:16.445Z,29.67
2022-09-06T15:33:43.559Z,29.21
2022-09-06T15:36:11.636Z,29.02
2022-09-06T15:38:43.267Z,28.79
2022-09-06T15:41:14.383Z,28.63
2022-09-06T15:43:47.697Z,28.84
2022-09-06T15:46:15.143Z,29.14
2022-09-06T15:48:46.400Z,29.42
2022-09-06T15:51:18.490Z,29.93
2022-09-06T15:53:47.306Z,30.11
2022-09-06T15:56:15.217Z,29.98
2022-09-06T15:58:48.309Z,30.10
2022-09-06T16:01:17.031Z,30.20
2022-09-06T16:03:45.802Z,30.35
2022-09-06T16:08:55.977Z,29.66
2022-09-06T16:11:22.800Z,28.99
2022-09-06T16:13:50.113Z,28.46
2022-09-06T16:16:19.141Z,27.79
2022-09-06T16:18:48.881Z,27.22
2022-09-06T16:21:21.088Z,26.78
2022-09-06T16:24:02.070Z,26.30
2022-09-06T16:26:36.204Z,25.85
2022-09-06T16:29:04.127Z,25.48
2022-09-06T16:31:36.485Z,25.20
2022-09-06T16:34:07.533Z,24.87
2022-09-06T16:36:43.722Z,24.57
2022-09-06T16:39:10.756Z,24.35
2022-09-06T16:41:41.988Z,24.16
2022-09-06T16:44:13.870Z,23.95
2022-09-06T16:46:41.225Z,23.74
2022-09-06T16:49:08.383Z,23.53
2022-09-06T16:51:35.180Z,23.35
2022-09-06T16:54:02.103Z,23.17
2022-09-06T16:56:32.800Z,22.99
2022-09-06T16:59:01.148Z,22.84
2022-09-06T17:01:29.388Z,22.69
2022-09-06T17:04:00.851Z,22.54
2022-09-06T17:06:29.773Z,22.40
2022-09-06T17:09:00.213Z,22.29
2022-09-06T17:11:27.854Z,22.14
2022-09-06T17:13:55.822Z,22.01
2022-09-06T17:16:45.623Z,21.90
2022-09-06T17:19:13.402Z,21.76
2022-09-06T17:21:40.299Z,21.64
2022-09-06T17:24:11.198Z,21.54
2022-09-06T17:26:39.180Z,21.44
2022-09-06T17:29:06.620Z,21.34
2022-09-06T17:31:53.777Z,21.24
2022-09-06T17:34:20.780Z,21.14
2022-09-06T17:36:47.527Z,21.03
2022-09-06T17:39:18.446Z,20.89
2022-09-06T17:41:46.347Z,20.74
2022-09-06T17:44:17.869Z,20.59
2022-09-06T17:47:02.629Z,20.47
2022-09-06T17:49:32.868Z,20.37
2022-09-06T17:51:59.691Z,20.30
2022-09-06T17:54:27.144Z,20.17
2022-09-06T17:56:54.265Z,20.02
2022-09-06T17:59:31.665Z,19.92
2022-09-06T18:02:24.946Z,19.83
2022-09-06T18:04:52.940Z,19.77
2022-09-06T18:07:20.196Z,19.70
2022-09-06T18:09:48.728Z,19.65
2022-09-06T18:12:23.470Z,19.57
2022-09-06T18:14:51.858Z,19.52
2022-09-06T18:17:26.447Z,19.48
2022-09-06T18:19:59.611Z,19.43
2022-09-06T18:22:38.105Z,19.38
2022-09-06T18:25:19.631Z,19.34
2022-09-06T18:27:48.453Z,19.30
2022-09-06T18:30:18.779Z,19.26
2022-09-06T18:32:48.016Z,19.23
2022-09-06T18:35:18.907Z,19.16
2022-09-06T18:37:46.979Z,19.08
2022-09-06T18:40:16.125Z,19.04
2022-09-06T18:42:46.181Z,19.00
2022-09-06T18:45:16.514Z,18.97
2022-09-06T18:47:47.783Z,18.92
2022-09-06T18:50:17.766Z,18.89
2022-09-06T18:52:46.478Z,18.85
2022-09-06T18:55:23.705Z,18.80
2022-09-06T18:57:56.568Z,18.75
2022-09-06T19:00:26.158Z,18.69
2022-09-06T19:03:03.359Z,18.65
2022-09-06T19:05:36.755Z,18.59
2022-09-06T19:08:18.641Z,18.50
2022-09-06T19:10:45.767Z,18.43
2022-09-06T19:13:13.652Z,18.36
2022-09-06T19:15:42.288Z,18.26
2022-09-06T19:18:09.197Z,18.20
2022-09-06T19:20:36.681Z,18.11
2022-09-06T19:23:03.645Z,18.08
2022-09-06T19:25:33.173Z,18.03
2022-09-06T19:28:00.240Z,17.99
2022-09-06T19:30:27.051Z,17.92
2022-09-06T19:32:59.582Z,17.86
2022-09-06T19:35:27.693Z,17.76
2022-09-06T19:37:54.917Z,17.70
2022-09-06T19:40:24.278Z,17.66
2022-09-06T19:42:51.746Z,17.66
2022-09-06T19:45:24.479Z,17.64
2022-09-06T19:47:51.482Z,17.57
2022-09-06T19:50:18.600Z,17.54
2022-09-06T19:52:47.124Z,17.50
2022-09-06T19:55:16.581Z,17.43
2022-09-06T19:57:43.684Z,17.34
2022-09-06T20:00:11.168Z,17.22
2022-09-06T20:02:39.914Z,17.18
2022-09-06T20:05:07.412Z,17.12
2022-09-06T20:07:41.986Z,17.04
2022-09-06T20:10:12.281Z,16.94
2022-09-06T20:12:39.791Z,16.88
2022-09-06T20:15:09.069Z,16.77
2022-09-06T20:17:39.210Z,16.74
2022-09-06T20:20:13.438Z,16.74
2022-09-06T20:22:53.373Z,16.71
2022-09-06T20:25:20.119Z,16.71
2022-09-06T20:27:47.096Z,16.62
2022-09-06T20:30:18.630Z,16.65
2022-09-06T20:32:45.568Z,16.61
2022-09-06T20:35:13.613Z,16.60
2022-09-06T20:37:55.070Z,16.57
2022-09-06T20:40:22.142Z,16.55
2022-09-06T20:42:49.218Z,16.52
2022-09-06T20:45:29.145Z,16.51
2022-09-06T20:48:05.225Z,16.44
2022-09-06T20:50:32.267Z,16.44
2022-09-06T20:52:59.985Z,16.40
2022-09-06T20:55:27.143Z,16.36
2022-09-06T20:57:56.610Z,16.29
2022-09-06T21:00:24.393Z,16.27
2022-09-06T21:02:53.665Z,16.18
2022-09-06T21:05:22.185Z,16.13
2022-09-06T21:07:49.175Z,15.98
2022-09-06T21:10:17.652Z,15.91
2022-09-06T21:12:45.576Z,15.92
2022-09-06T21:15:12.446Z,15.94
2022-09-06T21:17:44.326Z,15.92
2022-09-06T21:20:12.960Z,15.85
2022-09-06T21:22:41.311Z,15.89
2022-09-06T21:25:08.678Z,15.89
2022-09-06T21:27:37.382Z,15.87
2022-09-06T21:30:04.454Z,15.85
2022-09-06T21:32:33.859Z,15.84
2022-09-06T21:35:03.119Z,15.79
2022-09-06T21:37:32.818Z,15.79
2022-09-06T21:40:01.514Z,15.80
2022-09-06T21:42:29.572Z,15.81
2022-09-06T21:44:56.447Z,15.83
2022-09-06T21:47:24.725Z,15.83
2022-09-06T21:49:58.731Z,15.81
2022-09-06T21:52:32.204Z,15.76
2022-09-06T21:55:01.932Z,15.70
2022-09-06T21:57:29.084Z,15.67
2022-09-06T21:59:57.515Z,15.62
2022-09-06T22:02:28.911Z,15.61
2022-09-06T22:04:56.127Z,15.60
2022-09-06T22:07:30.673Z,15.60
2022-09-06T22:09:57.620Z,15.59
2022-09-06T22:12:27.219Z,15.61
2022-09-06T22:14:54.387Z,15.68
2022-09-06T22:17:22.563Z,15.77
2022-09-06T22:19:50.133Z,15.84
2022-09-06T22:22:19.270Z,15.89
2022-09-06T22:24:46.203Z,15.92
2022-09-06T22:27:13.075Z,15.95
2022-09-06T22:29:40.129Z,16.00
2022-09-06T22:32:10.776Z,16.04
2022-09-06T22:34:40.069Z,16.09
2022-09-06T22:37:07.287Z,16.12
2022-09-06T22:39:35.185Z,16.14
2022-09-06T22:42:02.325Z,16.13
2022-09-06T22:44:32.253Z,16.14
2022-09-06T22:46:59.077Z,16.14
2022-09-06T22:49:28.963Z,16.19
2022-09-06T22:51:55.879Z,16.19
2022-09-06T22:54:26.990Z,16.20
2022-09-06T22:56:53.794Z,16.22
2022-09-06T22:59:20.952Z,16.25
2022-09-06T23:01:48.996Z,16.27
2022-09-06T23:04:18.286Z,16.28
2022-09-06T23:06:45.869Z,16.26
2022-09-06T23:09:16.933Z,16.23
2022-09-06T23:11:44.008Z,16.17
2022-09-06T23:14:13.277Z,16.12
2022-09-06T23:16:44.052Z,16.06
2022-09-06T23:19:12.249Z,15.99
2022-09-06T23:21:39.028Z,15.95
2022-09-06T23:24:09.971Z,15.93
2022-09-06T23:26:37.006Z,15.91
2022-09-06T23:29:04.218Z,15.88
2022-09-06T23:31:34.883Z,15.87
2022-09-06T23:34:02.224Z,15.85
2022-09-06T23:36:29.745Z,15.83
2022-09-06T23:39:20.085Z,15.80
2022-09-06T23:41:46.940Z,15.76
2022-09-06T23:44:22.213Z,15.73
2022-09-06T23:46:50.593Z,15.72
2022-09-06T23:49:17.509Z,15.67
2022-09-06T23:51:56.197Z,15.66
2022-09-06T23:54:23.699Z,15.66
2022-09-06T23:56:50.742Z,15.65
2022-09-06T23:59:17.863Z,15.59
